createdAt,value
2018-02-08T00:00:14.152Z,17.30
2018-02-08T00:02:43.444Z,16.40
2018-02-08T00:05:17.850Z,15.53
2018-02-08T00:07:46.174Z,17.00
2018-02-08T00:10:40.242Z,16.80
2018-02-08T00:15:53.331Z,15.97
2018-02-08T00:18:25.709Z,16.60
2018-02-08T00:21:03.193Z,15.80
2018-02-08T00:23:31.462Z,16.30
2018-02-08T00:25:59.710Z,15.23
2018-02-08T00:28:27.985Z,16.27
2018-02-08T00:30:57.132Z,16.67
2018-02-08T00:33:25.390Z,16.93
2018-02-08T00:35:53.687Z,17.43
2018-02-08T00:38:21.957Z,16.33
2018-02-08T00:40:50.210Z,17.97
2018-02-08T00:43:18.468Z,19.03
2018-02-08T00:45:46.722Z,19.43
2018-02-08T00:48:14.980Z,18.97
2018-02-08T00:50:44.178Z,18.90
2018-02-08T00:53:13.380Z,21.03
2018-02-08T00:55:42.385Z,19.37
2018-02-08T00:58:10.675Z,18.33
2018-02-08T01:00:39.367Z,18.40
2018-02-08T01:03:07.646Z,21.00
2018-02-08T01:05:35.910Z,19.40
2018-02-08T01:08:04.838Z,20.17
2018-02-08T01:10:33.114Z,21.20
2018-02-08T01:13:01.389Z,19.23
2018-02-08T01:15:29.678Z,21.27
2018-02-08T01:17:57.936Z,21.23
2018-02-08T01:20:26.191Z,20.63
2018-02-08T01:22:54.445Z,18.73
2018-02-08T01:25:22.704Z,18.00
2018-02-08T01:27:50.962Z,19.60
2018-02-08T01:30:19.230Z,19.83
2018-02-08T01:32:47.494Z,21.67
2018-02-08T01:35:15.753Z,21.00
2018-02-08T01:37:44.015Z,21.40
2018-02-08T01:40:12.906Z,20.03
2018-02-08T01:42:41.207Z,19.47
2018-02-08T01:45:16.923Z,20.37
2018-02-08T01:47:45.173Z,19.20
2018-02-08T01:50:13.425Z,21.30
2018-02-08T01:52:41.706Z,22.03
2018-02-08T01:55:15.019Z,21.67
2018-02-08T01:57:43.282Z,22.00
2018-02-08T02:00:13.082Z,21.20
2018-02-08T02:02:41.353Z,22.00
2018-02-08T02:05:15.518Z,21.27
2018-02-08T02:07:43.793Z,20.93
2018-02-08T02:10:17.109Z,20.70
2018-02-08T02:12:45.357Z,21.03
2018-02-08T02:15:13.636Z,20.27
2018-02-08T02:17:41.897Z,20.37
2018-02-08T02:20:14.592Z,20.63
2018-02-08T02:22:42.868Z,21.70
2018-02-08T02:25:13.789Z,18.67
2018-02-08T02:27:42.083Z,20.87
2018-02-08T02:30:14.792Z,20.33
2018-02-08T02:32:43.039Z,20.03
2018-02-08T02:35:16.022Z,21.30
2018-02-08T02:37:44.282Z,19.97
2018-02-08T02:40:12.557Z,19.90
2018-02-08T02:42:40.836Z,20.30
2018-02-08T02:45:11.017Z,20.20
2018-02-08T02:47:40.775Z,21.97
2018-02-08T02:50:19.326Z,20.07
2018-02-08T02:52:47.593Z,19.10
2018-02-08T02:55:15.863Z,20.70
2018-02-08T02:57:44.118Z,22.03
2018-02-08T03:00:16.619Z,20.03
2018-02-08T03:02:44.910Z,20.70
2018-02-08T03:05:15.724Z,22.40
2018-02-08T03:07:43.979Z,21.20
2018-02-08T03:10:16.371Z,20.73
2018-02-08T03:12:44.649Z,21.53
2018-02-08T03:15:15.697Z,21.43
2018-02-08T03:17:43.967Z,22.53
2018-02-08T03:20:12.857Z,22.23
2018-02-08T03:22:41.121Z,22.37
2018-02-08T03:25:16.208Z,21.30
2018-02-08T03:27:44.478Z,21.47
2018-02-08T03:30:12.558Z,20.20
2018-02-08T03:32:40.643Z,21.20
2018-02-08T03:35:17.174Z,21.40
2018-02-08T03:37:45.440Z,19.53
2018-02-08T03:40:17.092Z,20.37
2018-02-08T03:42:45.350Z,20.40
2018-02-08T03:45:13.609Z,21.23
2018-02-08T03:47:41.890Z,22.17
2018-02-08T03:50:16.148Z,21.23
2018-02-08T03:52:44.446Z,22.73
2018-02-08T03:55:12.726Z,21.00
2018-02-08T03:57:40.982Z,21.43
2018-02-08T04:00:15.660Z,19.60
2018-02-08T04:02:43.914Z,23.43
2018-02-08T04:05:17.675Z,22.00
2018-02-08T04:07:45.942Z,20.23
2018-02-08T04:10:16.662Z,21.10
2018-02-08T04:12:45.144Z,23.90
2018-02-08T04:15:15.816Z,22.37
2018-02-08T04:17:44.107Z,18.50
2018-02-08T04:20:16.667Z,21.93
2018-02-08T04:22:45.496Z,21.73
2018-02-08T04:25:16.398Z,23.37
2018-02-08T04:27:44.671Z,23.77
2018-02-08T04:30:12.931Z,22.00
2018-02-08T04:32:41.177Z,23.73
2018-02-08T04:35:10.518Z,23.77
2018-02-08T04:37:38.769Z,19.77
2018-02-08T04:40:18.706Z,23.30
2018-02-08T04:42:57.937Z,22.17
2018-02-08T04:45:37.277Z,22.87
2018-02-08T04:48:08.053Z,24.07
2018-02-08T04:50:36.321Z,23.60
2018-02-08T04:53:04.574Z,23.70
2018-02-08T04:55:32.828Z,24.23
2018-02-08T04:58:01.075Z,21.93
2018-02-08T05:00:29.158Z,23.93
2018-02-08T05:03:00.699Z,23.80
2018-02-08T05:05:28.991Z,23.63
2018-02-08T05:07:57.249Z,23.27
2018-02-08T05:10:25.501Z,22.63
2018-02-08T05:12:53.770Z,22.60
2018-02-08T05:15:22.030Z,23.23
2018-02-08T05:17:50.486Z,24.57
2018-02-08T05:20:18.746Z,23.87
2018-02-08T05:22:47.006Z,27.53
2018-02-08T05:25:15.600Z,25.30
2018-02-08T05:27:43.858Z,26.43
2018-02-08T05:30:16.256Z,26.20
2018-02-08T05:32:44.541Z,23.97
2018-02-08T05:35:12.821Z,23.27
2018-02-08T05:37:41.076Z,25.50
2018-02-08T05:40:15.870Z,25.47
2018-02-08T05:42:44.124Z,24.70
2018-02-08T05:45:16.273Z,25.50
2018-02-08T05:47:44.528Z,23.87
2018-02-08T05:50:12.805Z,26.07
2018-02-08T05:52:41.086Z,25.03
2018-02-08T05:55:13.654Z,23.77
2018-02-08T05:57:41.926Z,27.43
2018-02-08T06:00:11.968Z,24.97
2018-02-08T06:02:40.238Z,26.67
2018-02-08T06:05:11.621Z,26.17
2018-02-08T06:07:39.885Z,28.77
2018-02-08T06:10:18.857Z,28.17
2018-02-08T06:12:47.121Z,26.53
2018-02-08T06:15:16.969Z,26.30
2018-02-08T06:17:45.225Z,25.33
2018-02-08T06:20:16.496Z,29.33
2018-02-08T06:22:46.573Z,26.13
2018-02-08T06:25:16.742Z,26.73
2018-02-08T06:27:45.010Z,28.00
2018-02-08T06:30:14.785Z,31.03
2018-02-08T06:32:43.049Z,29.70
2018-02-08T06:35:17.871Z,27.40
2018-02-08T06:37:46.361Z,31.07
2018-02-08T06:40:14.623Z,29.63
2018-02-08T06:42:42.889Z,29.20
2018-02-08T06:45:12.980Z,29.80
2018-02-08T06:47:41.965Z,30.00
2018-02-08T06:50:16.539Z,30.77
2018-02-08T06:52:44.807Z,31.23
2018-02-08T06:55:13.058Z,29.70
2018-02-08T06:57:42.853Z,32.57
2018-02-08T07:00:14.099Z,27.43
2018-02-08T07:02:42.357Z,31.03
2018-02-08T07:05:13.455Z,31.27
2018-02-08T07:07:42.717Z,30.47
2018-02-08T07:10:17.526Z,26.40
2018-02-08T07:12:45.809Z,30.30
2018-02-08T07:15:16.492Z,32.87
2018-02-08T07:17:44.462Z,31.27
2018-02-08T07:20:16.528Z,29.80
2018-02-08T07:22:45.218Z,48.37
2018-02-08T07:25:14.295Z,31.97
2018-02-08T07:27:42.554Z,33.37
2018-02-08T07:30:16.429Z,30.40
2018-02-08T07:32:44.678Z,31.47
2018-02-08T07:35:12.949Z,28.30
2018-02-08T07:37:41.202Z,29.00
2018-02-08T07:40:13.655Z,29.57
2018-02-08T07:42:42.152Z,29.20
2018-02-08T07:45:15.980Z,30.73
2018-02-08T07:47:44.265Z,29.80
2018-02-08T07:50:16.845Z,28.50
2018-02-08T07:52:45.250Z,29.90
2018-02-08T07:55:16.674Z,33.53
2018-02-08T07:57:44.938Z,33.20
2018-02-08T08:00:16.641Z,29.87
2018-02-08T08:02:44.903Z,29.57
2018-02-08T08:05:17.081Z,30.60
2018-02-08T08:07:45.361Z,29.13
2018-02-08T08:10:16.467Z,31.93
2018-02-08T08:12:45.524Z,27.87
2018-02-08T08:15:15.378Z,35.13
2018-02-08T08:17:43.656Z,31.00
2018-02-08T08:20:16.799Z,29.70
2018-02-08T08:22:45.058Z,35.13
2018-02-08T08:25:16.592Z,39.77
2018-02-08T08:27:44.854Z,31.87
2018-02-08T08:30:18.154Z,28.53
2018-02-08T08:32:46.469Z,29.67
2018-02-08T08:35:14.933Z,31.50
2018-02-08T08:37:43.355Z,29.87
2018-02-08T08:40:16.877Z,30.93
2018-02-08T08:42:45.157Z,31.40
2018-02-08T08:45:17.112Z,30.30
2018-02-08T08:47:45.373Z,30.27
2018-02-08T08:50:15.110Z,30.10
2018-02-08T08:52:43.423Z,31.27
2018-02-08T08:55:14.188Z,32.00
2018-02-08T08:57:42.454Z,30.33
2018-02-08T09:00:16.290Z,28.00
2018-02-08T09:02:44.861Z,29.40
2018-02-08T09:05:17.258Z,27.93
2018-02-08T09:07:46.393Z,30.10
2018-02-08T09:10:17.062Z,33.53
2018-02-08T09:12:45.334Z,30.77
2018-02-08T09:15:19.017Z,29.00
2018-02-08T09:17:47.274Z,31.40
2018-02-08T09:20:17.535Z,30.47
2018-02-08T09:22:45.837Z,31.90
2018-02-08T09:25:17.390Z,31.27
2018-02-08T09:27:45.882Z,33.00
2018-02-08T09:30:17.202Z,31.40
2018-02-08T09:32:45.465Z,27.30
2018-02-08T09:35:13.766Z,29.80
2018-02-08T09:37:42.035Z,30.90
2018-02-08T09:40:15.192Z,31.70
2018-02-08T09:42:43.718Z,28.93
2018-02-08T09:45:17.019Z,30.97
2018-02-08T09:47:45.294Z,30.63
2018-02-08T09:50:16.957Z,32.47
2018-02-08T09:52:45.261Z,30.53
2018-02-08T09:55:17.358Z,27.60
2018-02-08T09:57:45.753Z,31.63
2018-02-08T10:00:17.617Z,29.40
2018-02-08T10:02:45.914Z,31.00
2018-02-08T10:05:17.351Z,30.47
2018-02-08T10:07:45.638Z,28.83
2018-02-08T10:10:16.244Z,29.40
2018-02-08T10:12:44.522Z,31.70
2018-02-08T10:15:17.606Z,28.87
2018-02-08T10:17:45.872Z,30.93
2018-02-08T10:20:17.792Z,29.50
2018-02-08T10:22:46.502Z,30.27
2018-02-08T10:25:16.677Z,27.40
2018-02-08T10:27:44.966Z,28.63
2018-02-08T10:30:17.106Z,30.97
2018-02-08T10:32:45.363Z,30.50
2018-02-08T10:35:17.882Z,28.90
2018-02-08T10:37:46.578Z,29.37
2018-02-08T10:40:18.245Z,27.40
2018-02-08T10:42:46.503Z,28.67
2018-02-08T10:45:16.897Z,30.20
2018-02-08T10:47:45.180Z,28.53
2018-02-08T10:50:17.346Z,29.63
2018-02-08T10:52:45.621Z,31.23
2018-02-08T10:55:16.997Z,30.70
2018-02-08T10:57:45.980Z,32.63
2018-02-08T11:00:17.038Z,30.00
2018-02-08T11:02:45.314Z,29.90
2018-02-08T11:05:16.248Z,33.17
2018-02-08T11:07:44.523Z,29.03
2018-02-08T11:10:15.919Z,29.60
2018-02-08T11:12:44.226Z,33.80
2018-02-08T11:15:17.118Z,30.50
2018-02-08T11:17:45.383Z,28.97
2018-02-08T11:20:16.359Z,29.77
2018-02-08T11:22:44.630Z,29.50
2018-02-08T11:25:16.768Z,30.07
2018-02-08T11:27:45.046Z,33.90
2018-02-08T11:30:15.722Z,31.23
2018-02-08T11:32:43.977Z,32.37
2018-02-08T11:35:16.959Z,32.30
2018-02-08T11:37:45.218Z,30.87
2018-02-08T11:40:16.147Z,31.10
2018-02-08T11:42:44.422Z,32.23
2018-02-08T11:45:15.558Z,29.97
2018-02-08T11:47:43.833Z,32.27
2018-02-08T11:50:15.774Z,30.87
2018-02-08T11:52:44.074Z,31.77
2018-02-08T11:55:17.072Z,32.73
2018-02-08T11:57:45.349Z,31.30
2018-02-08T12:00:16.298Z,30.00
2018-02-08T12:02:44.589Z,31.50
2018-02-08T12:05:16.690Z,31.53
2018-02-08T12:07:44.959Z,35.67
2018-02-08T12:10:17.114Z,34.50
2018-02-08T12:12:45.391Z,30.10
2018-02-08T12:15:16.499Z,31.60
2018-02-08T12:17:44.772Z,31.23
2018-02-08T12:20:16.793Z,32.30
2018-02-08T12:22:45.064Z,34.33
2018-02-08T12:25:16.333Z,32.57
2018-02-08T12:27:44.632Z,32.60
2018-02-08T12:30:16.903Z,30.17
2018-02-08T12:32:45.183Z,32.20
2018-02-08T12:35:16.671Z,31.40
2018-02-08T12:37:45.631Z,33.30
2018-02-08T12:40:16.427Z,33.37
2018-02-08T12:42:44.685Z,32.43
2018-02-08T12:45:17.168Z,34.00
2018-02-08T12:47:45.426Z,31.03
2018-02-08T12:50:17.534Z,32.80
2018-02-08T12:52:45.793Z,31.03
2018-02-08T12:55:14.061Z,31.53
2018-02-08T12:57:42.325Z,31.70
2018-02-08T13:00:16.146Z,33.40
2018-02-08T13:02:44.438Z,31.00
2018-02-08T13:05:16.332Z,31.77
2018-02-08T13:07:44.613Z,34.30
2018-02-08T13:10:17.330Z,30.63
2018-02-08T13:12:45.599Z,33.57
2018-02-08T13:15:19.522Z,34.07
2018-02-08T13:17:47.797Z,34.53
2018-02-08T13:20:17.117Z,32.33
2018-02-08T13:22:45.398Z,32.60
2018-02-08T13:25:14.628Z,32.40
2018-02-08T13:27:42.878Z,33.03
2018-02-08T13:30:17.160Z,32.40
2018-02-08T13:32:45.461Z,36.43
2018-02-08T13:35:16.695Z,36.97
2018-02-08T13:37:44.794Z,36.00
2018-02-08T13:40:18.654Z,36.10
2018-02-08T13:42:46.754Z,36.23
2018-02-08T13:45:16.349Z,36.63
2018-02-08T13:47:50.066Z,33.93
2018-02-08T13:53:46.322Z,39.00
2018-02-08T13:56:19.852Z,36.00
2018-02-08T13:58:53.656Z,34.83
2018-02-08T14:01:24.970Z,36.07
2018-02-08T14:03:53.054Z,36.03
2018-02-08T14:06:21.318Z,34.00
2018-02-08T14:08:49.586Z,38.47
2018-02-08T14:11:17.874Z,36.40
2018-02-08T14:13:46.147Z,36.03
2018-02-08T14:16:14.402Z,37.57
2018-02-08T14:18:42.665Z,34.30
2018-02-08T14:21:11.078Z,36.87
2018-02-08T14:23:39.354Z,37.03
2018-02-08T14:26:07.610Z,37.03
2018-02-08T14:28:35.874Z,36.83
2018-02-08T14:31:04.157Z,35.67
2018-02-08T14:33:32.441Z,35.60
2018-02-08T14:36:00.752Z,36.53
2018-02-08T14:38:29.011Z,35.40
2018-02-08T14:40:57.379Z,35.10
2018-02-08T14:43:25.640Z,35.80
2018-02-08T14:45:53.953Z,36.03
2018-02-08T14:48:22.234Z,36.40
2018-02-08T14:50:50.504Z,35.30
2018-02-08T14:53:18.778Z,37.03
2018-02-08T14:55:46.849Z,34.33
2018-02-08T14:58:15.110Z,37.40
2018-02-08T15:00:43.469Z,36.67
2018-02-08T15:03:11.755Z,35.23
2018-02-08T15:05:40.019Z,37.20
2018-02-08T15:08:08.289Z,37.40
2018-02-08T15:10:36.701Z,34.23
2018-02-08T15:13:04.973Z,37.10
2018-02-08T15:15:33.285Z,36.10
2018-02-08T15:18:01.744Z,35.20
2018-02-08T15:20:30.003Z,36.30
2018-02-08T15:22:58.270Z,32.33
2018-02-08T15:25:26.534Z,33.50
2018-02-08T15:27:54.809Z,34.53
2018-02-08T15:30:23.178Z,35.33
2018-02-08T15:32:51.446Z,36.70
2018-02-08T15:35:19.742Z,35.97
2018-02-08T15:37:48.039Z,32.33
2018-02-08T15:40:17.474Z,32.60
2018-02-08T15:42:46.003Z,33.40
2018-02-08T15:45:17.696Z,33.93
2018-02-08T15:47:45.983Z,34.27
2018-02-08T15:50:18.525Z,31.10
2018-02-08T15:52:46.784Z,33.40
2018-02-08T15:55:16.135Z,33.43
2018-02-08T15:57:44.637Z,33.20
2018-02-08T16:00:12.974Z,35.27
2018-02-08T16:02:41.275Z,31.60
2018-02-08T16:05:15.769Z,35.23
2018-02-08T16:07:44.048Z,32.00
2018-02-08T16:10:12.314Z,32.40
2018-02-08T16:12:40.703Z,33.83
2018-02-08T16:15:08.973Z,33.07
2018-02-08T16:17:37.239Z,32.03
2018-02-08T16:20:06.730Z,35.70
2018-02-08T16:22:35.001Z,31.63
2018-02-08T16:25:03.278Z,33.13
2018-02-08T16:27:31.553Z,34.00
2018-02-08T16:29:59.817Z,30.60
2018-02-08T16:32:28.085Z,34.20
2018-02-08T16:34:56.406Z,38.67
2018-02-08T16:37:24.694Z,37.33
2018-02-08T16:39:52.953Z,34.83
2018-02-08T16:42:21.226Z,33.57
2018-02-08T16:44:49.488Z,32.83
2018-02-08T16:47:17.762Z,32.60
2018-02-08T16:49:46.028Z,35.97
2018-02-08T16:52:14.294Z,33.50
2018-02-08T16:54:42.995Z,36.47
2018-02-08T16:57:11.274Z,33.33
2018-02-08T16:59:39.573Z,35.93
2018-02-08T17:02:07.830Z,33.70
2018-02-08T17:04:35.902Z,36.77
2018-02-08T17:07:04.162Z,36.10
2018-02-08T17:09:32.232Z,34.07
2018-02-08T17:12:00.567Z,33.60
2018-02-08T17:14:28.830Z,36.30
2018-02-08T17:16:58.028Z,32.13
2018-02-08T17:19:26.323Z,35.00
2018-02-08T17:21:54.608Z,34.60
2018-02-08T17:24:22.875Z,34.90
2018-02-08T17:26:51.154Z,36.07
2018-02-08T17:29:19.421Z,37.20
2018-02-08T17:31:47.678Z,38.10
2018-02-08T17:34:15.970Z,34.77
2018-02-08T17:36:44.349Z,35.67
2018-02-08T17:39:12.646Z,38.83
2018-02-08T17:41:40.957Z,37.27
2018-02-08T17:44:09.215Z,36.63
2018-02-08T17:46:37.478Z,40.33
2018-02-08T17:49:05.744Z,38.03
2018-02-08T17:51:34.012Z,38.80
2018-02-08T17:54:02.330Z,39.30
2018-02-08T17:56:30.602Z,36.83
2018-02-08T17:58:58.865Z,39.47
2018-02-08T18:01:27.058Z,40.30
2018-02-08T18:03:55.348Z,37.90
2018-02-08T18:06:23.610Z,38.30
2018-02-08T18:08:51.900Z,38.23
2018-02-08T18:11:20.172Z,42.40
2018-02-08T18:13:48.442Z,38.27
2018-02-08T18:16:16.698Z,38.17
2018-02-08T18:18:45.012Z,36.30
2018-02-08T18:21:13.374Z,39.17
2018-02-08T18:23:41.675Z,41.80
2018-02-08T18:26:10.663Z,37.23
2018-02-08T18:28:38.940Z,41.53
2018-02-08T18:31:07.238Z,38.13
2018-02-08T18:33:35.510Z,39.17
2018-02-08T18:36:03.774Z,38.37
2018-02-08T18:38:31.741Z,40.20
2018-02-08T18:41:00.048Z,39.07
2018-02-08T18:43:28.312Z,39.13
2018-02-08T18:45:56.969Z,41.43
2018-02-08T18:48:25.309Z,38.60
2018-02-08T18:50:53.561Z,40.93
2018-02-08T18:53:22.713Z,37.67
2018-02-08T18:55:51.163Z,39.20
2018-02-08T18:58:19.421Z,40.70
2018-02-08T19:00:47.693Z,39.57
2018-02-08T19:03:15.962Z,38.83
2018-02-08T19:05:44.238Z,41.13
2018-02-08T19:08:12.213Z,40.47
2018-02-08T19:10:40.490Z,38.80
2018-02-08T19:13:08.806Z,41.60
2018-02-08T19:15:37.091Z,41.10
2018-02-08T19:18:05.386Z,39.70
2018-02-08T19:20:33.706Z,38.57
2018-02-08T19:23:02.129Z,38.17
2018-02-08T19:25:30.524Z,37.87
2018-02-08T19:27:58.786Z,42.33
2018-02-08T19:30:27.067Z,37.77
2018-02-08T19:32:55.378Z,38.30
2018-02-08T19:35:23.670Z,41.97
2018-02-08T19:37:52.870Z,38.20
2018-02-08T19:40:21.179Z,38.97
2018-02-08T19:42:49.715Z,40.03
2018-02-08T19:45:18.011Z,37.83
2018-02-08T19:47:46.276Z,36.23
2018-02-08T19:50:15.279Z,40.17
2018-02-08T19:52:43.536Z,39.70
2018-02-08T19:55:12.154Z,42.13
2018-02-08T19:57:40.450Z,39.40
2018-02-08T20:00:08.741Z,38.77
2018-02-08T20:02:36.849Z,54.40
2018-02-08T20:05:05.334Z,43.77
2018-02-08T20:07:34.481Z,43.73
2018-02-08T20:10:02.752Z,37.67
2018-02-08T20:12:31.218Z,37.93
2018-02-08T20:14:59.965Z,40.30
2018-02-08T20:17:28.233Z,40.43
2018-02-08T20:19:56.586Z,38.43
2018-02-08T20:22:24.572Z,42.67
2018-02-08T20:24:52.833Z,41.10
2018-02-08T20:27:21.092Z,40.03
2018-02-08T20:29:49.345Z,39.43
2018-02-08T20:32:17.842Z,38.73
2018-02-08T20:34:46.134Z,38.83
2018-02-08T20:37:14.413Z,37.40
2018-02-08T20:39:42.675Z,38.87
2018-02-08T20:42:16.414Z,38.37
2018-02-08T20:44:44.498Z,38.50
2018-02-08T20:47:12.775Z,39.63
2018-02-08T20:49:47.191Z,41.13
2018-02-08T20:52:15.494Z,38.97
2018-02-08T20:54:43.762Z,37.20
2018-02-08T20:57:12.681Z,38.20
2018-02-08T20:59:40.966Z,38.80
2018-02-08T21:02:09.054Z,37.70
2018-02-08T21:04:37.329Z,42.57
2018-02-08T21:07:05.595Z,40.60
2018-02-08T21:09:33.877Z,42.87
2018-02-08T21:12:02.161Z,41.13
2018-02-08T21:14:30.423Z,39.13
2018-02-08T21:16:58.710Z,39.77
2018-02-08T21:19:26.990Z,41.97
2018-02-08T21:21:55.254Z,44.67
2018-02-08T21:24:23.515Z,44.77
2018-02-08T21:26:51.782Z,42.77
2018-02-08T21:29:20.086Z,42.03
2018-02-08T21:31:48.401Z,41.33
2018-02-08T21:34:17.287Z,41.90
2018-02-08T21:36:45.572Z,46.00
2018-02-08T21:39:13.866Z,41.40
2018-02-08T21:41:42.140Z,41.83
2018-02-08T21:44:10.438Z,43.10
2018-02-08T21:46:38.727Z,44.40
2018-02-08T21:49:07.006Z,41.17
2018-02-08T21:51:35.323Z,42.60
2018-02-08T21:54:03.610Z,42.43
2018-02-08T21:56:31.894Z,45.13
2018-02-08T21:59:00.170Z,41.30
2018-02-08T22:01:28.490Z,43.87
2018-02-08T22:03:56.766Z,40.17
2018-02-08T22:06:25.042Z,41.30
2018-02-08T22:08:53.306Z,39.30
2018-02-08T22:11:21.571Z,40.50
2018-02-08T22:13:49.650Z,43.63
2018-02-08T22:16:17.989Z,40.90
2018-02-08T22:18:46.276Z,42.20
2018-02-08T22:21:14.562Z,41.80
2018-02-08T22:23:42.822Z,40.83
2018-02-08T22:26:11.150Z,43.27
2018-02-08T22:28:39.413Z,43.10
2018-02-08T22:31:07.678Z,40.93
2018-02-08T22:33:35.950Z,42.30
2018-02-08T22:36:04.222Z,42.17
2018-02-08T22:38:32.479Z,42.40
2018-02-08T22:41:00.786Z,41.57
2018-02-08T22:43:29.205Z,40.50
2018-02-08T22:45:59.149Z,41.60
2018-02-08T22:48:27.455Z,40.23
2018-02-08T22:50:55.746Z,42.07
2018-02-08T22:53:24.022Z,41.30
2018-02-08T22:55:52.286Z,40.30
2018-02-08T22:58:20.952Z,41.15
2018-02-08T23:00:49.221Z,45.00
2018-02-08T23:03:17.491Z,42.83
2018-02-08T23:05:45.751Z,40.53
2018-02-08T23:08:14.113Z,44.30
2018-02-08T23:10:42.370Z,45.67
2018-02-08T23:13:10.647Z,45.33
2018-02-08T23:15:39.010Z,42.17
2018-02-08T23:18:07.284Z,45.10
2018-02-08T23:20:35.542Z,42.57
2018-02-08T23:23:03.462Z,40.47
2018-02-08T23:25:31.739Z,41.40
2018-02-08T23:28:00.006Z,42.27
2018-02-08T23:30:28.277Z,43.80
2018-02-08T23:32:56.550Z,41.73
2018-02-08T23:35:24.828Z,45.60
2018-02-08T23:37:53.736Z,44.10
2018-02-08T23:40:21.988Z,42.03
2018-02-08T23:42:50.298Z,39.80
2018-02-08T23:45:19.133Z,43.80
2018-02-08T23:47:47.406Z,43.47
2018-02-08T23:50:15.700Z,42.93
2018-02-08T23:52:43.970Z,44.70
2018-02-08T23:55:12.275Z,44.30
2018-02-08T23:57:40.534Z,43.50
